La Grande, OR

1:08 PM PDT on October 25, 2014 (GMT -0700)
La Grande-Union County | Change Station
CLOSE
Current Station
Airport
Location: La Grande,
Elevation: 2717 ft
Nearby Weather Stations

Elev 2717 ft 45.29 °N, 118.01 °W | Updated 13 minutes ago

Partly Cloudy
Partly Cloudy
70 °F
Feels Like 70 °F
N
25
Wind Variable Wind from South
Gusts 33 mph

Today
High -- | Low -- °F
--% Chance of Precip.
Yesterday
High -- | Low -- °F
Precip. -- in
7:22 AM 5:50 PM
Waxing Crescent, 4% visible
Pressure 29.63 in
Visibility 10.0 miles
Clouds Clear
Dew Point 36 °F
Humidity 28%
Rainfall 0.00 in
Snow Depth 0 in , 1 in
UV 4 out of 12
Pollen 1.70 out of 12
Air Quality Not available.
Flu Activity Sporadic
METAR KLGD 251955Z AUTO 17022G29KT 10SM CLR 21/02 A2963 RMK AO1

More Conditions Fewer Conditions

Pressure 29.63 in
Visibility 10.0 miles
Clouds Clear
Dew Point 36 °F
Humidity 28%
Rainfall 0.00 in
Snow Depth 0 in , 1 in
UV 4 out of 12
Pollen 1.70 out of 12
Air Quality Not available.
Flu Activity Sporadic
METAR KLGD 251955Z AUTO 17022G29KT 10SM CLR 21/02 A2963 RMK AO1

More Conditions Fewer Conditions

10-Day Weather Forecast

Almanac

Astronomy

Oct. 25, 2014 Rise Set
Actual Time 7:22 AM PDT 5:50 PM PDT
Civil Twilight 6:52 AM PDT 6:20 PM PDT
Nautical Twilight 6:17 AM PDT 6:55 PM PDT
Astronomical Twilight 5:43 AM PDT 7:29 PM PDT
Moon 9:09 AM PDT 7:12 PM PDT
Length of Visible Light 11h 28m
Length of Day
10h 28m
Tomorrow will be 2m 57s shorter.
Waxing Crescent, 4% of the Moon is Illuminated
Today
Waxing Crescent
Oct 30
First Quarter
Nov 6
Full
Nov 14
Last Quarter
Nov 22
New

Today's Extremes

State Highs State Lows

Community

WunderPhotos

Upload Photos

1,764,976 photos uploaded!

Nearby

Snow Depth

Station Depth Elevation
Bowman Springs 0 in 4580 ft
Emigrant Springs 1 in 3925 ft
High Ridge 0 in 4980 ft
Lucky Strike 2 in 5050 ft
Bourne 0 in 5800 ft

Earthquake Activity

City Distance Mag. Time & Date
No recent earthquake activity has been reported nearby.
Minimum magnitude displayed is 2.5.

Coastal Water Temperatures

Place Temperature
No Stations Reporting

Nearby Weather Stations